createdAt,value
2023-03-06T00:01:10.523Z,98661.50
2023-03-06T00:03:49.731Z,98667.22
2023-03-06T00:06:18.632Z,98664.34
2023-03-06T00:08:49.164Z,98663.97
2023-03-06T00:11:15.917Z,98672.72
2023-03-06T00:16:32.196Z,98673.94
2023-03-06T00:19:02.461Z,98671.72
2023-03-06T00:21:30.397Z,98677.22
2023-03-06T00:23:57.034Z,98669.69
2023-03-06T00:26:30.113Z,98670.06
2023-03-06T00:28:57.536Z,98673.75
2023-03-06T00:31:30.305Z,98667.63
2023-03-06T00:34:00.604Z,98673.34
2023-03-06T00:36:29.998Z,98663.16
2023-03-06T00:38:57.965Z,98662.16
2023-03-06T00:41:29.702Z,98664.56
2023-03-06T00:43:57.762Z,98665.19
2023-03-06T00:46:26.949Z,98661.72
2023-03-06T00:48:56.120Z,98664.19
2023-03-06T00:51:27.633Z,98662.72
2023-03-06T00:53:56.902Z,98663.56
2023-03-06T00:56:26.734Z,98662.13
2023-03-06T00:58:58.542Z,98665.81
2023-03-06T01:01:29.393Z,98658.66
2023-03-06T01:03:56.033Z,98651.31
2023-03-06T01:06:22.665Z,98647.03
2023-03-06T01:08:52.721Z,98646.00
2023-03-06T01:11:19.358Z,98639.88
2023-03-06T01:13:48.982Z,98634.97
2023-03-06T01:16:19.993Z,98628.66
2023-03-06T01:18:50.497Z,98627.63
2023-03-06T01:21:17.497Z,98627.41
2023-03-06T01:23:44.281Z,98631.53
2023-03-06T01:26:11.017Z,98631.94
2023-03-06T01:28:41.540Z,98625.19
2023-03-06T01:31:11.800Z,98623.56
2023-03-06T01:33:39.146Z,98624.16
2023-03-06T01:36:14.794Z,98615.19
2023-03-06T01:38:46.354Z,98609.72
2023-03-06T01:41:15.962Z,98612.75
2023-03-06T01:43:47.272Z,98603.97
2023-03-06T01:46:29.622Z,98601.94
2023-03-06T01:49:28.161Z,98593.97
2023-03-06T01:52:02.826Z,98595.81
2023-03-06T01:54:35.266Z,98598.69
2023-03-06T01:57:06.014Z,98596.63
2023-03-06T01:59:38.092Z,98588.88
2023-03-06T02:02:09.026Z,98593.78
2023-03-06T02:04:39.803Z,98585.19
2023-03-06T02:07:10.711Z,98585.00
2023-03-06T02:09:38.298Z,98579.88
2023-03-06T02:12:10.315Z,98580.09
2023-03-06T02:14:41.586Z,98572.13
2023-03-06T02:17:12.221Z,98574.34
2023-03-06T02:20:12.208Z,98571.09
2023-03-06T02:22:59.784Z,98565.59
2023-03-06T02:25:45.680Z,98571.69
2023-03-06T02:28:20.406Z,98572.13
2023-03-06T02:30:49.525Z,98571.13
2023-03-06T02:33:19.670Z,98568.44
2023-03-06T02:35:53.458Z,98562.94
2023-03-06T02:38:25.344Z,98568.47
2023-03-06T02:40:55.771Z,98565.19
2023-03-06T02:43:27.747Z,98562.31
2023-03-06T02:46:01.837Z,98557.25
2023-03-06T02:48:28.524Z,98550.31
2023-03-06T02:50:55.607Z,98563.16
2023-03-06T02:53:22.472Z,98556.81
2023-03-06T02:55:49.620Z,98561.31
2023-03-06T02:58:19.685Z,98555.78
2023-03-06T03:00:48.164Z,98551.50
2023-03-06T03:03:16.408Z,98552.13
2023-03-06T03:05:46.269Z,98548.03
2023-03-06T03:08:21.509Z,98541.09
2023-03-06T03:10:51.462Z,98541.28
2023-03-06T03:13:19.634Z,98538.06
2023-03-06T03:16:18.537Z,98540.13
2023-03-06T03:18:47.797Z,98539.09
2023-03-06T03:21:17.593Z,98535.59
2023-03-06T03:23:49.282Z,98525.81
2023-03-06T03:26:20.952Z,98532.75
2023-03-06T03:28:54.563Z,98527.84
2023-03-06T03:31:21.961Z,98520.50
2023-03-06T03:33:51.060Z,98530.69
2023-03-06T03:36:19.144Z,98532.31
2023-03-06T03:38:50.399Z,98523.16
2023-03-06T03:41:22.338Z,98526.84
2023-03-06T03:43:52.283Z,98522.97
2023-03-06T03:46:21.583Z,98521.13
2023-03-06T03:48:49.561Z,98517.25
2023-03-06T03:51:17.908Z,98524.00
2023-03-06T03:54:00.719Z,98519.09
2023-03-06T03:56:35.381Z,98520.53
2023-03-06T03:59:10.621Z,98514.38
2023-03-06T04:01:48.586Z,98511.72
2023-03-06T04:04:15.692Z,98504.81
2023-03-06T04:06:48.587Z,98512.78
2023-03-06T04:09:17.472Z,98514.63
2023-03-06T04:11:44.851Z,98511.56
2023-03-06T04:14:11.631Z,98505.22
2023-03-06T04:16:39.033Z,98502.97
2023-03-06T04:19:20.222Z,98504.03
2023-03-06T04:21:52.483Z,98496.28
2023-03-06T04:24:21.448Z,98507.72
2023-03-06T04:26:48.485Z,98495.06
2023-03-06T04:29:15.334Z,98494.22
2023-03-06T04:31:48.481Z,98499.31
2023-03-06T04:34:18.305Z,98492.00
2023-03-06T04:36:47.935Z,98486.50
2023-03-06T04:39:19.697Z,98488.56
2023-03-06T04:41:50.073Z,98482.00
2023-03-06T04:44:28.564Z,98478.38
2023-03-06T04:49:36.457Z,98481.41
2023-03-06T04:52:03.670Z,98472.84
2023-03-06T04:54:33.118Z,98477.13
2023-03-06T04:57:00.586Z,98471.25
2023-03-06T04:59:27.192Z,98467.97
2023-03-06T05:02:00.749Z,98466.13
2023-03-06T05:04:29.926Z,98463.88
2023-03-06T05:06:59.918Z,98461.84
2023-03-06T05:09:29.761Z,98465.13
2023-03-06T05:12:00.136Z,98454.91
2023-03-06T05:14:30.087Z,98449.22
2023-03-06T05:17:01.392Z,98444.28
2023-03-06T05:19:28.041Z,98445.34
2023-03-06T05:21:54.753Z,98440.84
2023-03-06T05:24:25.870Z,98444.09
2023-03-06T05:26:55.696Z,98437.97
2023-03-06T05:29:24.708Z,98436.78
2023-03-06T05:31:52.694Z,98441.66
2023-03-06T05:34:22.481Z,98437.97
2023-03-06T05:36:49.111Z,98440.84
2023-03-06T05:39:15.762Z,98447.97
2023-03-06T05:41:45.291Z,98442.66
2023-03-06T05:44:12.896Z,98444.28
2023-03-06T05:46:44.979Z,98441.84
2023-03-06T05:49:11.744Z,98451.44
2023-03-06T05:51:38.330Z,98449.41
2023-03-06T05:54:05.046Z,98446.94
2023-03-06T05:56:33.328Z,98448.75
2023-03-06T05:59:02.256Z,98450.56
2023-03-06T06:01:29.870Z,98452.41
2023-03-06T06:03:56.724Z,98449.13
2023-03-06T06:06:23.362Z,98446.06
2023-03-06T06:08:52.405Z,98442.59
2023-03-06T06:11:22.250Z,98443.19
2023-03-06T06:13:50.798Z,98434.16
2023-03-06T06:16:21.621Z,98434.16
2023-03-06T06:18:51.419Z,98437.44
2023-03-06T06:21:19.357Z,98447.22
2023-03-06T06:23:46.302Z,98445.97
2023-03-06T06:26:15.612Z,98442.66
2023-03-06T06:28:46.478Z,98447.72
2023-03-06T06:31:13.557Z,98434.88
2023-03-06T06:33:42.049Z,98448.91
2023-03-06T06:36:16.769Z,98438.53
2023-03-06T06:38:44.142Z,98441.56
2023-03-06T06:44:01.496Z,98439.03
2023-03-06T06:49:23.057Z,98440.00
2023-03-06T06:51:50.789Z,98447.31
2023-03-06T06:54:18.748Z,98431.75
2023-03-06T06:56:45.727Z,98427.84
2023-03-06T06:59:17.393Z,98427.31
2023-03-06T07:01:44.610Z,98429.78
2023-03-06T07:04:14.804Z,98438.66
2023-03-06T07:06:51.178Z,98435.97
2023-03-06T07:09:21.297Z,98431.38
2023-03-06T07:11:54.489Z,98425.00
2023-03-06T07:14:23.396Z,98428.06
2023-03-06T07:16:54.501Z,98419.34
2023-03-06T07:19:26.622Z,98425.94
2023-03-06T07:21:55.847Z,98431.56
2023-03-06T07:24:24.652Z,98433.88
2023-03-06T07:26:54.396Z,98443.84
2023-03-06T07:29:23.656Z,98448.41
2023-03-06T07:31:50.680Z,98442.53
2023-03-06T07:34:18.426Z,98438.38
2023-03-06T07:36:47.970Z,98439.91
2023-03-06T07:39:18.108Z,98435.72
2023-03-06T07:41:47.509Z,98434.50
2023-03-06T07:44:21.385Z,98439.00
2023-03-06T07:46:48.703Z,98432.09
2023-03-06T07:49:17.025Z,98433.16
2023-03-06T07:51:43.941Z,98434.34
2023-03-06T07:54:11.481Z,98427.97
2023-03-06T07:56:38.226Z,98432.06
2023-03-06T07:59:08.869Z,98436.28
2023-03-06T08:01:36.520Z,98439.63
2023-03-06T08:04:07.461Z,98434.66
2023-03-06T08:06:37.477Z,98428.50
2023-03-06T08:09:08.866Z,98420.84
2023-03-06T08:11:38.244Z,98432.94
2023-03-06T08:14:07.454Z,98421.44
2023-03-06T08:16:35.643Z,98421.09
2023-03-06T08:19:07.852Z,98425.25
2023-03-06T08:21:36.371Z,98433.59
2023-03-06T08:24:05.790Z,98426.22
2023-03-06T08:26:40.212Z,98423.47
2023-03-06T08:29:10.824Z,98420.47
2023-03-06T08:31:41.397Z,98422.44
2023-03-06T08:34:16.275Z,98421.50
2023-03-06T08:36:45.384Z,98418.38
2023-03-06T08:39:14.303Z,98416.25
2023-03-06T08:41:44.586Z,98416.25
2023-03-06T08:44:11.736Z,98413.69
2023-03-06T08:46:44.915Z,98420.78
2023-03-06T08:49:17.529Z,98412.75
2023-03-06T08:51:44.797Z,98416.59
2023-03-06T08:54:16.416Z,98421.53
2023-03-06T08:56:45.929Z,98415.84
2023-03-06T08:59:16.772Z,98415.47
2023-03-06T09:01:45.200Z,98416.38
2023-03-06T09:04:11.958Z,98419.00
2023-03-06T09:06:45.208Z,98405.75
2023-03-06T09:09:14.547Z,98412.13
2023-03-06T09:11:44.259Z,98405.75
2023-03-06T09:14:12.172Z,98405.59
2023-03-06T09:16:44.501Z,98406.88
2023-03-06T09:19:13.879Z,98403.72
2023-03-06T09:21:41.544Z,98407.75
2023-03-06T09:24:11.397Z,98407.63
2023-03-06T09:26:52.251Z,98410.97
2023-03-06T09:29:21.245Z,98405.41
2023-03-06T09:31:52.739Z,98401.16
2023-03-06T09:34:24.765Z,98403.91
2023-03-06T09:36:57.203Z,98405.59
2023-03-06T09:39:29.409Z,98404.09
2023-03-06T09:42:00.890Z,98390.81
2023-03-06T09:44:31.777Z,98400.69
2023-03-06T09:47:35.692Z,98401.88
2023-03-06T09:50:20.320Z,98400.22
2023-03-06T09:53:08.852Z,98405.94
2023-03-06T09:55:38.149Z,98410.59
2023-03-06T09:58:21.248Z,98408.66
2023-03-06T10:01:03.033Z,98405.91
2023-03-06T10:03:56.441Z,98407.16
2023-03-06T10:06:48.395Z,98405.28
2023-03-06T10:09:28.324Z,98407.69
2023-03-06T10:12:00.944Z,98398.22
2023-03-06T10:14:40.959Z,98403.06
2023-03-06T10:17:23.485Z,98392.69
2023-03-06T10:19:53.339Z,98398.06
2023-03-06T10:22:37.115Z,98389.84
2023-03-06T10:25:03.728Z,98389.41
2023-03-06T10:27:55.593Z,98391.09
2023-03-06T10:30:46.897Z,98385.63
2023-03-06T10:33:56.060Z,98378.22
2023-03-06T10:36:27.243Z,98376.91
2023-03-06T10:38:56.141Z,98369.22
2023-03-06T10:41:29.320Z,98368.19
2023-03-06T10:44:07.469Z,98366.34
2023-03-06T10:46:45.321Z,98362.84
2023-03-06T10:49:17.317Z,98362.88
2023-03-06T10:52:02.340Z,98349.09
2023-03-06T10:54:32.816Z,98348.84
2023-03-06T10:57:19.723Z,98338.03
2023-03-06T10:59:57.874Z,98338.69
2023-03-06T11:02:34.013Z,98336.28
2023-03-06T11:05:04.768Z,98334.44
2023-03-06T11:07:33.187Z,98331.78
2023-03-06T11:09:59.946Z,98328.56
2023-03-06T11:12:34.680Z,98330.97
2023-03-06T11:15:18.519Z,98322.13
2023-03-06T11:17:53.683Z,98322.66
2023-03-06T11:20:22.145Z,98325.94
2023-03-06T11:22:55.203Z,98320.59
2023-03-06T11:25:56.856Z,98313.69
2023-03-06T11:28:44.016Z,98312.06
2023-03-06T11:31:18.238Z,98303.50
2023-03-06T11:34:21.272Z,98300.75
2023-03-06T11:37:18.991Z,98306.66
2023-03-06T11:40:24.870Z,98290.31
2023-03-06T11:43:19.969Z,98286.25
2023-03-06T11:45:54.058Z,98284.72
2023-03-06T11:48:38.171Z,98280.16
2023-03-06T11:51:19.296Z,98274.81
2023-03-06T11:53:46.057Z,98274.81
2023-03-06T11:56:16.425Z,98261.69
2023-03-06T11:59:12.717Z,98255.19
2023-03-06T12:02:11.731Z,98259.53
2023-03-06T12:04:52.966Z,98261.16
2023-03-06T12:07:24.086Z,98252.03
2023-03-06T12:09:53.823Z,98241.81
2023-03-06T12:12:32.538Z,98245.81
2023-03-06T12:15:34.679Z,98245.31
2023-03-06T12:18:39.771Z,98235.09
2023-03-06T12:21:38.094Z,98238.00
2023-03-06T12:24:26.592Z,98229.41
2023-03-06T12:27:21.693Z,98231.03
2023-03-06T12:30:05.759Z,98230.75
2023-03-06T12:32:41.621Z,98223.75
2023-03-06T12:35:31.929Z,98225.38
2023-03-06T12:38:21.742Z,98218.94
2023-03-06T12:41:08.888Z,98215.69
2023-03-06T12:44:08.173Z,98213.28
2023-03-06T12:46:42.548Z,98215.41
2023-03-06T12:49:23.014Z,98211.94
2023-03-06T12:51:58.464Z,98214.31
2023-03-06T12:54:28.436Z,98200.06
2023-03-06T12:56:57.092Z,98189.06
2023-03-06T12:59:47.427Z,98194.97
2023-03-06T13:02:14.284Z,98187.97
2023-03-06T13:05:00.731Z,98191.16
2023-03-06T13:07:36.404Z,98189.53
2023-03-06T13:10:35.514Z,98186.03
2023-03-06T13:13:34.273Z,98179.56
2023-03-06T13:16:13.596Z,98179.84
2023-03-06T13:18:43.230Z,98180.97
2023-03-06T13:21:45.213Z,98174.25
2023-03-06T13:24:22.790Z,98170.78
2023-03-06T13:27:02.811Z,98168.66
2023-03-06T13:29:36.160Z,98167.00
2023-03-06T13:32:02.939Z,98171.56
2023-03-06T13:34:51.967Z,98179.09
2023-03-06T13:37:27.555Z,98174.53
2023-03-06T13:40:00.448Z,98170.81
2023-03-06T13:42:28.819Z,98170.00
2023-03-06T13:44:56.505Z,98160.59
2023-03-06T13:47:50.539Z,98163.28
2023-03-06T13:50:37.701Z,98162.19
2023-03-06T13:53:29.450Z,98166.22
2023-03-06T13:56:06.442Z,98145.28
2023-03-06T13:58:44.471Z,98150.38
2023-03-06T14:01:32.528Z,98152.25
2023-03-06T14:04:27.229Z,98150.38
2023-03-06T14:07:12.003Z,98141.78
2023-03-06T14:09:42.904Z,98150.41
2023-03-06T14:12:40.926Z,98150.13
2023-03-06T14:15:16.574Z,98151.47
2023-03-06T14:17:54.406Z,98144.22
2023-03-06T14:20:21.882Z,98135.34
2023-03-06T14:22:48.486Z,98142.28
2023-03-06T14:25:28.234Z,98141.47
2023-03-06T14:27:56.462Z,98143.38
2023-03-06T14:30:27.100Z,98140.66
2023-03-06T14:32:55.042Z,98144.41
2023-03-06T14:35:35.538Z,98138.50
2023-03-06T14:38:08.743Z,98140.88
2023-03-06T14:40:41.078Z,98141.41
2023-03-06T14:43:10.758Z,98143.25
2023-03-06T14:45:38.765Z,98144.59
2023-03-06T14:48:13.034Z,98149.16
2023-03-06T14:50:43.679Z,98144.03
2023-03-06T14:53:28.821Z,98148.88
2023-03-06T14:56:01.411Z,98152.25
2023-03-06T14:58:33.894Z,98156.19
2023-03-06T15:01:09.449Z,98157.31
2023-03-06T15:03:51.069Z,98154.03
2023-03-06T15:06:23.526Z,98149.72
2023-03-06T15:09:08.042Z,98156.88
2023-03-06T15:12:04.108Z,98154.94
2023-03-06T15:14:42.801Z,98168.16
2023-03-06T15:17:18.540Z,98153.38
2023-03-06T15:19:49.553Z,98158.94
2023-03-06T15:22:34.752Z,98155.13
2023-03-06T15:25:31.068Z,98148.13
2023-03-06T15:28:01.932Z,98148.56
2023-03-06T15:30:38.825Z,98148.78
2023-03-06T15:33:24.829Z,98147.13
2023-03-06T15:35:57.246Z,98150.56
2023-03-06T15:38:32.075Z,98141.59
2023-03-06T15:41:02.660Z,98150.59
2023-03-06T15:43:39.177Z,98152.13
2023-03-06T15:46:07.043Z,98157.28
2023-03-06T15:48:37.506Z,98157.03
2023-03-06T15:51:04.937Z,98167.88
2023-03-06T15:53:35.574Z,98154.59
2023-03-06T15:56:02.341Z,98162.44
2023-03-06T15:58:34.726Z,98151.03
2023-03-06T16:01:04.929Z,98166.84
2023-03-06T16:03:33.919Z,98160.63
2023-03-06T16:06:08.986Z,98161.63
2023-03-06T16:08:36.821Z,98161.28
2023-03-06T16:11:03.482Z,98169.28
2023-03-06T16:13:32.347Z,98159.91
2023-03-06T16:15:59.380Z,98160.47
2023-03-06T16:18:25.986Z,98164.44
2023-03-06T16:20:56.706Z,98161.09
2023-03-06T16:23:23.288Z,98163.53
2023-03-06T16:25:50.181Z,98161.38
2023-03-06T16:28:19.637Z,98153.09
2023-03-06T16:30:46.449Z,98160.56
2023-03-06T16:33:13.883Z,98155.47
2023-03-06T16:35:41.348Z,98156.34
2023-03-06T16:38:10.341Z,98165.69
2023-03-06T16:40:41.043Z,98163.47
2023-03-06T16:43:10.697Z,98156.88
2023-03-06T16:45:41.835Z,98166.81
2023-03-06T16:48:14.616Z,98164.44
2023-03-06T16:50:42.253Z,98166.66
2023-03-06T16:53:08.967Z,98160.06
2023-03-06T16:55:54.804Z,98170.50
2023-03-06T16:58:27.821Z,98170.97
2023-03-06T17:00:54.620Z,98170.75
2023-03-06T17:03:21.361Z,98169.25
2023-03-06T17:05:48.130Z,98169.72
2023-03-06T17:08:14.789Z,98168.56
2023-03-06T17:10:42.044Z,98172.75
2023-03-06T17:13:10.698Z,98180.03
2023-03-06T17:15:40.111Z,98171.81
2023-03-06T17:18:08.281Z,98175.63
2023-03-06T17:20:40.724Z,98178.63
2023-03-06T17:23:09.568Z,98182.56
2023-03-06T17:25:38.979Z,98182.66
2023-03-06T17:28:08.945Z,98180.69
2023-03-06T17:30:35.586Z,98179.19
2023-03-06T17:33:02.757Z,98192.38
2023-03-06T17:35:38.131Z,98189.72
2023-03-06T17:38:07.872Z,98197.31
2023-03-06T17:40:35.059Z,98190.16
2023-03-06T17:43:05.797Z,98193.75
2023-03-06T17:45:36.755Z,98184.69
2023-03-06T17:48:06.025Z,98188.28
2023-03-06T17:50:34.984Z,98191.25
2023-03-06T17:53:07.181Z,98197.50
2023-03-06T17:55:36.701Z,98196.78
2023-03-06T17:58:06.130Z,98199.91
2023-03-06T18:00:36.001Z,98206.84
2023-03-06T18:03:02.692Z,98204.63
2023-03-06T18:05:33.995Z,98195.72
2023-03-06T18:08:07.017Z,98202.94
2023-03-06T18:10:43.524Z,98200.50
2023-03-06T18:13:11.746Z,98207.91
2023-03-06T18:15:46.708Z,98208.34
2023-03-06T18:18:13.430Z,98200.25
2023-03-06T18:20:44.715Z,98208.44
2023-03-06T18:23:15.581Z,98210.06
2023-03-06T18:25:50.259Z,98211.00
2023-03-06T18:28:17.016Z,98216.06
2023-03-06T18:30:48.684Z,98222.97
2023-03-06T18:33:17.969Z,98222.84
2023-03-06T18:35:44.762Z,98219.94
2023-03-06T18:38:12.959Z,98216.84
2023-03-06T18:40:41.876Z,98232.28
2023-03-06T18:43:09.500Z,98231.22
2023-03-06T18:45:40.851Z,98231.28
2023-03-06T18:48:10.685Z,98229.06
2023-03-06T18:50:37.722Z,98237.69
2023-03-06T18:53:08.001Z,98229.94
2023-03-06T18:55:40.026Z,98237.97
2023-03-06T18:58:11.883Z,98231.59
2023-03-06T19:00:40.138Z,98233.56
2023-03-06T19:03:06.983Z,98232.19
2023-03-06T19:05:33.789Z,98235.84
2023-03-06T19:08:03.303Z,98239.53
2023-03-06T19:10:31.773Z,98239.59
2023-03-06T19:12:59.538Z,98234.69
2023-03-06T19:15:27.346Z,98241.44
2023-03-06T19:17:56.472Z,98235.53
2023-03-06T19:20:28.485Z,98240.44
2023-03-06T19:22:55.926Z,98236.59
2023-03-06T19:25:25.110Z,98235.41
2023-03-06T19:27:54.673Z,98230.50
2023-03-06T19:30:25.541Z,98228.53
2023-03-06T19:32:53.709Z,98235.13
2023-03-06T19:35:24.063Z,98235.56
2023-03-06T19:37:51.067Z,98236.00
2023-03-06T19:40:18.059Z,98233.97
2023-03-06T19:42:44.866Z,98247.66
2023-03-06T19:45:12.957Z,98233.38
2023-03-06T19:47:46.805Z,98238.28
2023-03-06T19:50:16.617Z,98234.09
2023-03-06T19:52:43.913Z,98241.34
2023-03-06T19:55:11.390Z,98240.69
2023-03-06T19:57:45.336Z,98249.28
2023-03-06T20:00:12.729Z,98244.63
2023-03-06T20:02:46.047Z,98239.34
2023-03-06T20:05:15.419Z,98246.41
2023-03-06T20:07:42.042Z,98244.81
2023-03-06T20:10:13.740Z,98252.75
2023-03-06T20:12:40.498Z,98255.03
2023-03-06T20:15:09.499Z,98253.00
2023-03-06T20:17:36.285Z,98252.56
2023-03-06T20:20:05.745Z,98249.47
2023-03-06T20:22:32.456Z,98257.88
2023-03-06T20:25:03.674Z,98259.50
2023-03-06T20:27:30.519Z,98264.16
2023-03-06T20:30:03.353Z,98255.25
2023-03-06T20:32:33.401Z,98255.88
2023-03-06T20:35:04.776Z,98252.81
2023-03-06T20:37:36.603Z,98255.84
2023-03-06T20:40:07.302Z,98258.88
2023-03-06T20:42:34.871Z,98254.78
2023-03-06T20:45:04.599Z,98257.13
2023-03-06T20:47:31.870Z,98267.31
2023-03-06T20:50:00.200Z,98247.72
2023-03-06T20:52:28.821Z,98255.88
2023-03-06T20:54:58.521Z,98265.06
2023-03-06T20:57:28.192Z,98253.81
2023-03-06T20:59:54.876Z,98255.78
2023-03-06T21:02:23.657Z,98258.81
2023-03-06T21:04:50.428Z,98257.59
2023-03-06T21:07:22.113Z,98259.81
2023-03-06T21:09:50.773Z,98259.22
2023-03-06T21:12:17.525Z,98265.75
2023-03-06T21:14:49.687Z,98266.22
2023-03-06T21:17:16.373Z,98267.56
2023-03-06T21:19:42.998Z,98269.28
2023-03-06T21:22:24.105Z,98270.72
2023-03-06T21:24:50.817Z,98279.44
2023-03-06T21:27:17.567Z,98287.56
2023-03-06T21:29:50.220Z,98286.16
2023-03-06T21:32:20.571Z,98284.91
2023-03-06T21:34:48.211Z,98291.59
2023-03-06T21:37:16.517Z,98289.84
2023-03-06T21:39:48.326Z,98287.88
2023-03-06T21:42:16.566Z,98292.22
2023-03-06T21:44:44.388Z,98296.63
2023-03-06T21:47:11.063Z,98292.97
2023-03-06T21:49:42.080Z,98303.19
2023-03-06T21:52:11.570Z,98299.50
2023-03-06T21:54:40.309Z,98287.94
2023-03-06T21:57:09.095Z,98294.03
2023-03-06T21:59:38.363Z,98300.84
2023-03-06T22:02:05.466Z,98291.84
2023-03-06T22:04:32.224Z,98301.66
2023-03-06T22:06:59.982Z,98300.84
2023-03-06T22:09:32.485Z,98299.88
2023-03-06T22:11:59.380Z,98291.34
2023-03-06T22:14:27.375Z,98297.66
2023-03-06T22:17:09.016Z,98293.00
2023-03-06T22:19:40.601Z,98290.78
2023-03-06T22:22:10.743Z,98280.81
2023-03-06T22:24:37.487Z,98286.09
2023-03-06T22:27:04.393Z,98286.53
2023-03-06T22:29:32.518Z,98281.25
2023-03-06T22:32:00.428Z,98276.34
2023-03-06T22:34:27.817Z,98281.44
2023-03-06T22:36:54.825Z,98272.28
2023-03-06T22:39:22.369Z,98272.66
2023-03-06T22:41:49.474Z,98279.22
2023-03-06T22:44:20.945Z,98277.78
2023-03-06T22:46:50.391Z,98280.38
2023-03-06T22:49:18.851Z,98276.69
2023-03-06T22:51:49.223Z,98271.19
2023-03-06T22:54:19.131Z,98276.88
2023-03-06T22:56:50.364Z,98279.75
2023-03-06T22:59:18.468Z,98271.66
2023-03-06T23:01:48.137Z,98277.53
2023-03-06T23:04:20.348Z,98274.25
2023-03-06T23:06:48.004Z,98262.34
2023-03-06T23:09:20.629Z,98272.94
2023-03-06T23:12:08.356Z,98264.13
2023-03-06T23:14:55.265Z,98272.63
2023-03-06T23:17:49.338Z,98276.09
2023-03-06T23:20:36.681Z,98266.28
2023-03-06T23:23:23.333Z,98269.84
2023-03-06T23:25:52.985Z,98263.41
2023-03-06T23:28:19.711Z,98269.13
2023-03-06T23:30:48.853Z,98271.16
2023-03-06T23:33:18.693Z,98262.28
2023-03-06T23:35:47.359Z,98261.63
2023-03-06T23:38:16.953Z,98267.09
2023-03-06T23:40:46.163Z,98268.38
2023-03-06T23:43:15.662Z,98263.25
2023-03-06T23:45:53.807Z,98275.34
2023-03-06T23:48:22.778Z,98274.38
2023-03-06T23:50:50.801Z,98266.78
2023-03-06T23:53:18.352Z,98267.38
2023-03-06T23:55:46.751Z,98263.91
2023-03-06T23:58:16.309Z,98269.84
